createdAt,value
2023-05-10T00:02:14.151Z,3.20
2023-05-10T00:04:44.275Z,3.63
2023-05-10T00:07:12.355Z,3.22
2023-05-10T00:09:39.920Z,2.80
2023-05-10T00:12:07.466Z,3.30
2023-05-10T00:14:35.040Z,2.80
2023-05-10T00:17:04.040Z,3.30
2023-05-10T00:19:31.669Z,2.88
2023-05-10T00:22:00.602Z,3.55
2023-05-10T00:24:28.107Z,2.83
2023-05-10T00:26:55.638Z,2.70
2023-05-10T00:29:23.192Z,3.05
2023-05-10T00:31:50.729Z,2.65
2023-05-10T00:34:18.218Z,3.28
2023-05-10T00:36:45.886Z,2.75
2023-05-10T00:39:14.900Z,3.47
2023-05-10T00:41:42.427Z,2.92
2023-05-10T00:44:10.175Z,2.88
2023-05-10T00:46:37.835Z,3.53
2023-05-10T00:49:05.811Z,2.80
2023-05-10T00:51:33.423Z,3.40
2023-05-10T00:54:00.983Z,2.70
2023-05-10T00:56:30.934Z,3.00
2023-05-10T00:58:58.636Z,2.80
2023-05-10T01:01:26.623Z,3.03
2023-05-10T01:03:54.615Z,4.30
2023-05-10T01:06:22.216Z,3.75
2023-05-10T01:08:49.709Z,2.67
2023-05-10T01:11:17.252Z,3.10
2023-05-10T01:13:47.048Z,4.63
2023-05-10T01:16:14.658Z,3.00
2023-05-10T01:18:42.895Z,2.88
2023-05-10T01:21:21.663Z,3.15
2023-05-10T01:24:02.864Z,3.17
2023-05-10T01:26:48.651Z,2.42
2023-05-10T01:29:20.890Z,2.90
2023-05-10T01:32:06.890Z,3.25
2023-05-10T01:34:37.251Z,3.47
2023-05-10T01:37:07.226Z,3.20
2023-05-10T01:39:39.029Z,2.97
2023-05-10T01:42:09.653Z,3.05
2023-05-10T01:44:39.639Z,3.10
2023-05-10T01:47:09.554Z,2.65
2023-05-10T01:49:40.837Z,3.22
2023-05-10T01:52:10.452Z,3.20
2023-05-10T01:54:40.667Z,2.92
2023-05-10T01:57:10.009Z,3.00
2023-05-10T01:59:41.678Z,3.28
2023-05-10T02:02:12.776Z,2.60
2023-05-10T02:04:42.767Z,2.60
2023-05-10T02:07:10.874Z,2.97
2023-05-10T02:09:39.024Z,2.60
2023-05-10T02:12:07.735Z,3.35
2023-05-10T02:14:37.293Z,2.83
2023-05-10T02:17:06.054Z,2.58
2023-05-10T02:19:34.196Z,2.67
2023-05-10T02:22:03.922Z,2.95
2023-05-10T02:24:31.994Z,2.38
2023-05-10T02:26:59.782Z,2.97
2023-05-10T02:29:28.134Z,2.67
2023-05-10T02:31:56.886Z,3.05
2023-05-10T02:34:25.326Z,4.60
2023-05-10T02:36:53.310Z,2.70
2023-05-10T02:39:22.817Z,3.17
2023-05-10T02:41:51.262Z,3.30
2023-05-10T02:44:20.945Z,3.13
2023-05-10T02:46:49.107Z,2.95
2023-05-10T02:49:16.687Z,4.05
2023-05-10T02:51:49.288Z,3.50
2023-05-10T02:54:20.354Z,3.30
2023-05-10T02:56:52.658Z,2.70
2023-05-10T02:59:20.644Z,2.88
2023-05-10T03:01:48.292Z,3.20
2023-05-10T03:04:16.201Z,3.55
2023-05-10T03:06:43.837Z,2.50
2023-05-10T03:09:12.160Z,3.10
2023-05-10T03:11:49.709Z,3.00
2023-05-10T03:14:23.756Z,3.20
2023-05-10T03:16:58.489Z,3.13
2023-05-10T03:19:28.369Z,3.08
2023-05-10T03:21:57.998Z,2.92
2023-05-10T03:24:27.802Z,3.10
2023-05-10T03:26:56.842Z,3.33
2023-05-10T03:29:27.654Z,3.03
2023-05-10T03:31:55.347Z,2.67
2023-05-10T03:34:25.492Z,3.97
2023-05-10T03:36:53.014Z,2.78
2023-05-10T03:39:22.294Z,2.90
2023-05-10T03:41:49.765Z,2.67
2023-05-10T03:44:17.383Z,2.80
2023-05-10T03:46:46.614Z,3.67
2023-05-10T03:49:14.326Z,3.25
2023-05-10T03:51:41.976Z,3.05
2023-05-10T03:54:09.555Z,3.35
2023-05-10T03:56:37.020Z,3.10
2023-05-10T03:59:08.284Z,3.00
2023-05-10T04:01:36.019Z,2.88
2023-05-10T04:04:05.035Z,3.10
2023-05-10T04:06:33.008Z,2.80
2023-05-10T04:09:04.948Z,2.85
2023-05-10T04:11:32.454Z,2.30
2023-05-10T04:13:59.953Z,3.20
2023-05-10T04:16:27.532Z,2.75
2023-05-10T04:18:55.099Z,2.90
2023-05-10T04:21:24.109Z,2.97
2023-05-10T04:23:51.695Z,2.45
2023-05-10T04:26:19.620Z,2.92
2023-05-10T04:28:47.138Z,2.47
2023-05-10T04:31:14.770Z,2.22
2023-05-10T04:33:42.337Z,2.45
2023-05-10T04:36:10.158Z,2.38
2023-05-10T04:38:39.039Z,2.47
2023-05-10T04:41:07.280Z,2.53
2023-05-10T04:43:34.772Z,2.33
2023-05-10T04:46:02.585Z,3.00
2023-05-10T04:48:30.477Z,2.30
2023-05-10T04:50:58.175Z,3.03
2023-05-10T04:53:25.815Z,2.47
2023-05-10T04:55:54.701Z,3.28
2023-05-10T04:58:22.267Z,2.10
2023-05-10T05:00:49.814Z,2.20
2023-05-10T05:03:17.346Z,2.90
2023-05-10T05:05:45.556Z,2.00
2023-05-10T05:08:13.849Z,2.42
2023-05-10T05:10:41.332Z,2.67
2023-05-10T05:13:10.160Z,2.15
2023-05-10T05:15:37.752Z,2.40
2023-05-10T05:18:05.471Z,2.58
2023-05-10T05:20:34.036Z,2.92
2023-05-10T05:23:01.733Z,2.53
2023-05-10T05:25:29.428Z,3.08
2023-05-10T05:27:57.387Z,2.92
2023-05-10T05:30:26.235Z,2.40
2023-05-10T05:32:53.785Z,2.22
2023-05-10T05:35:21.758Z,2.83
2023-05-10T05:37:49.329Z,2.75
2023-05-10T05:40:16.849Z,1.77
2023-05-10T05:42:44.419Z,2.17
2023-05-10T05:45:14.063Z,2.20
2023-05-10T05:47:43.836Z,2.38
2023-05-10T05:50:11.840Z,1.95
2023-05-10T05:52:39.426Z,1.70
2023-05-10T05:55:07.037Z,2.05
2023-05-10T05:57:34.728Z,1.75
2023-05-10T06:00:02.377Z,2.28
2023-05-10T06:02:29.926Z,2.10
2023-05-10T06:04:58.812Z,2.58
2023-05-10T06:07:26.439Z,1.83
2023-05-10T06:09:53.877Z,2.17
2023-05-10T06:12:21.377Z,2.80
2023-05-10T06:14:49.174Z,2.33
2023-05-10T06:17:16.622Z,2.20
2023-05-10T06:19:45.419Z,2.28
2023-05-10T06:22:14.396Z,2.40
2023-05-10T06:24:42.450Z,2.05
2023-05-10T06:27:09.907Z,1.92
2023-05-10T06:29:38.083Z,2.25
2023-05-10T06:32:05.743Z,1.90
2023-05-10T06:34:33.734Z,3.05
2023-05-10T06:37:01.279Z,2.05
2023-05-10T06:39:30.363Z,2.30
2023-05-10T06:41:57.850Z,2.10
2023-05-10T06:44:25.431Z,1.88
2023-05-10T06:46:54.456Z,2.00
2023-05-10T06:49:22.069Z,2.00
2023-05-10T06:51:50.246Z,2.10
2023-05-10T06:54:18.006Z,1.83
2023-05-10T06:56:46.814Z,1.75
2023-05-10T06:59:14.634Z,2.33
2023-05-10T07:01:42.259Z,1.80
2023-05-10T07:04:09.842Z,1.65
2023-05-10T07:06:37.815Z,1.83
2023-05-10T07:09:05.320Z,1.55
2023-05-10T07:11:32.775Z,1.95
2023-05-10T07:14:01.762Z,2.10
2023-05-10T07:16:29.686Z,2.10
2023-05-10T07:18:57.274Z,1.80
2023-05-10T07:21:25.379Z,1.83
2023-05-10T07:23:52.961Z,1.70
2023-05-10T07:26:23.290Z,1.70
2023-05-10T07:28:50.830Z,1.80
2023-05-10T07:31:20.016Z,1.80
2023-05-10T07:33:47.506Z,1.30
2023-05-10T07:36:15.557Z,1.83
2023-05-10T07:38:43.057Z,1.52
2023-05-10T07:41:10.516Z,1.70
2023-05-10T07:43:38.249Z,1.55
2023-05-10T07:46:06.455Z,1.70
2023-05-10T07:48:35.268Z,1.55
2023-05-10T07:51:02.969Z,1.38
2023-05-10T07:53:30.521Z,1.50
2023-05-10T07:55:59.752Z,1.40
2023-05-10T07:58:27.445Z,1.50
2023-05-10T08:00:54.911Z,1.30
2023-05-10T08:03:22.513Z,1.80
2023-05-10T08:05:51.533Z,4.28
2023-05-10T08:08:19.008Z,1.90
2023-05-10T08:10:46.484Z,1.52
2023-05-10T08:13:14.047Z,1.80
2023-05-10T08:15:41.606Z,1.35
2023-05-10T08:18:09.188Z,1.58
2023-05-10T08:20:36.727Z,1.45
2023-05-10T08:23:05.557Z,1.48
2023-05-10T08:25:33.450Z,3.38
2023-05-10T08:28:01.032Z,1.90
2023-05-10T08:30:28.967Z,1.55
2023-05-10T08:32:56.611Z,2.42
2023-05-10T08:35:24.175Z,1.58
2023-05-10T08:37:52.643Z,1.95
2023-05-10T08:40:22.123Z,1.77
2023-05-10T08:42:53.305Z,1.77
2023-05-10T08:45:21.927Z,1.20
2023-05-10T08:47:49.588Z,1.83
2023-05-10T08:50:17.592Z,1.92
2023-05-10T08:52:46.656Z,2.50
2023-05-10T08:55:14.158Z,1.42
2023-05-10T08:57:45.698Z,1.92
2023-05-10T09:00:14.139Z,1.70
2023-05-10T09:02:42.342Z,1.58
2023-05-10T09:05:10.984Z,1.95
2023-05-10T09:07:38.625Z,2.22
2023-05-10T09:10:06.776Z,1.63
2023-05-10T09:12:34.337Z,1.70
2023-05-10T09:15:03.702Z,1.30
2023-05-10T09:17:31.947Z,1.80
2023-05-10T09:19:59.828Z,1.70
2023-05-10T09:22:27.324Z,1.75
2023-05-10T09:25:05.449Z,1.75
2023-05-10T09:27:32.912Z,1.30
2023-05-10T09:30:00.886Z,1.77
2023-05-10T09:32:39.489Z,2.05
2023-05-10T09:35:08.432Z,2.25
2023-05-10T09:37:35.908Z,2.67
2023-05-10T09:40:06.446Z,2.05
2023-05-10T09:42:33.939Z,1.80
2023-05-10T09:45:02.477Z,2.22
2023-05-10T09:47:30.270Z,1.60
2023-05-10T09:50:04.017Z,2.17
2023-05-10T09:52:32.077Z,1.85
2023-05-10T09:55:00.040Z,1.42
2023-05-10T09:57:27.969Z,1.80
2023-05-10T09:59:56.549Z,1.98
2023-05-10T10:02:30.122Z,1.90
2023-05-10T10:04:59.173Z,1.73
2023-05-10T10:07:27.269Z,2.00
2023-05-10T10:09:55.334Z,1.75
2023-05-10T10:12:23.160Z,1.70
2023-05-10T10:14:51.391Z,2.00
2023-05-10T10:17:19.059Z,1.70
2023-05-10T10:19:47.569Z,2.40
2023-05-10T10:22:16.661Z,1.42
2023-05-10T10:24:44.867Z,1.80
2023-05-10T10:27:17.359Z,2.05
2023-05-10T10:29:50.454Z,2.22
2023-05-10T10:32:22.782Z,1.77
2023-05-10T10:34:50.486Z,1.60
2023-05-10T10:37:19.537Z,1.58
2023-05-10T10:39:49.961Z,1.60
2023-05-10T10:42:37.431Z,1.95
2023-05-10T10:45:17.531Z,1.95
2023-05-10T10:47:46.115Z,1.63
2023-05-10T10:50:14.634Z,2.22
2023-05-10T10:52:44.510Z,1.90
2023-05-10T10:55:12.833Z,2.00
2023-05-10T10:57:49.866Z,1.77
2023-05-10T11:00:21.099Z,2.30
2023-05-10T11:02:50.303Z,2.03
2023-05-10T11:05:48.054Z,1.83
2023-05-10T11:08:18.473Z,2.00
2023-05-10T11:10:53.814Z,1.77
2023-05-10T11:13:29.469Z,1.70
2023-05-10T11:16:00.815Z,1.83
2023-05-10T11:18:29.583Z,1.90
2023-05-10T11:20:58.793Z,1.63
2023-05-10T11:23:31.518Z,1.85
2023-05-10T11:26:00.772Z,1.65
2023-05-10T11:28:28.853Z,1.85
2023-05-10T11:30:56.524Z,1.60
2023-05-10T11:33:24.122Z,1.67
2023-05-10T11:35:51.958Z,1.52
2023-05-10T11:38:19.715Z,1.70
2023-05-10T11:40:48.624Z,1.63
2023-05-10T11:43:16.190Z,1.70
2023-05-10T11:45:43.727Z,1.40
2023-05-10T11:48:12.016Z,1.70
2023-05-10T11:50:40.428Z,2.15
2023-05-10T11:53:07.943Z,1.65
2023-05-10T11:55:36.335Z,1.55
2023-05-10T11:58:05.144Z,1.55
2023-05-10T12:00:32.977Z,1.95
2023-05-10T12:03:03.379Z,1.63
2023-05-10T12:05:36.669Z,2.22
2023-05-10T12:08:13.601Z,1.90
2023-05-10T12:10:41.144Z,1.50
2023-05-10T12:13:15.360Z,1.75
2023-05-10T12:18:11.368Z,1.60
2023-05-10T12:20:39.162Z,2.00
2023-05-10T12:23:07.020Z,1.70
2023-05-10T12:25:35.136Z,2.08
2023-05-10T12:28:05.111Z,1.45
2023-05-10T12:30:34.868Z,1.70
2023-05-10T12:33:04.443Z,1.35
2023-05-10T12:35:32.448Z,1.95
2023-05-10T12:38:00.001Z,1.95
2023-05-10T12:40:27.990Z,1.60
2023-05-10T12:42:55.563Z,1.60
2023-05-10T12:45:23.702Z,1.50
2023-05-10T12:47:52.827Z,2.38
2023-05-10T12:50:20.591Z,1.80
2023-05-10T12:52:48.075Z,1.40
2023-05-10T12:55:15.824Z,1.70
2023-05-10T12:57:43.631Z,1.67
2023-05-10T13:00:11.925Z,1.30
2023-05-10T13:02:39.480Z,1.65
2023-05-10T13:05:09.454Z,1.42
2023-05-10T13:07:37.295Z,1.25
2023-05-10T13:10:05.176Z,1.60
2023-05-10T13:12:32.857Z,1.35
2023-05-10T13:15:00.441Z,1.60
2023-05-10T13:17:28.079Z,1.60
2023-05-10T13:19:55.763Z,1.90
2023-05-10T13:22:36.465Z,3.45
2023-05-10T13:25:07.719Z,1.90
2023-05-10T13:27:35.256Z,1.95
2023-05-10T13:30:04.150Z,2.05
2023-05-10T13:32:31.903Z,1.70
2023-05-10T13:34:59.487Z,1.80
2023-05-10T13:37:28.341Z,1.50
2023-05-10T13:39:55.998Z,4.05
2023-05-10T13:42:24.000Z,1.48
2023-05-10T13:44:51.560Z,2.10
2023-05-10T13:47:19.109Z,1.58
2023-05-10T13:49:46.570Z,1.73
2023-05-10T13:52:15.068Z,2.05
2023-05-10T13:54:44.046Z,1.42
2023-05-10T13:57:13.705Z,1.63
2023-05-10T13:59:41.762Z,1.50
2023-05-10T14:02:09.617Z,1.60
2023-05-10T14:04:37.538Z,1.88
2023-05-10T14:07:05.322Z,1.85
2023-05-10T14:09:33.264Z,1.60
2023-05-10T14:12:03.385Z,1.45
2023-05-10T14:14:31.272Z,1.08
2023-05-10T14:17:00.461Z,1.10
2023-05-10T14:19:28.892Z,1.10
2023-05-10T14:21:56.467Z,1.40
2023-05-10T14:24:24.232Z,1.38
2023-05-10T14:26:54.643Z,1.27
2023-05-10T14:29:27.453Z,1.40
2023-05-10T14:31:55.064Z,1.50
2023-05-10T14:34:22.573Z,1.60
2023-05-10T14:36:50.953Z,1.17
2023-05-10T14:39:18.464Z,1.20
2023-05-10T14:41:46.758Z,1.42
2023-05-10T14:44:14.785Z,1.70
2023-05-10T14:46:43.805Z,1.05
2023-05-10T14:49:11.322Z,1.25
2023-05-10T14:51:38.928Z,1.30
2023-05-10T14:54:06.776Z,1.10
2023-05-10T14:56:34.418Z,1.20
2023-05-10T14:59:02.409Z,1.40
2023-05-10T15:01:30.691Z,1.70
2023-05-10T15:04:00.423Z,1.25
2023-05-10T15:06:32.941Z,1.23
2023-05-10T15:09:00.813Z,1.48
2023-05-10T15:11:29.129Z,1.30
2023-05-10T15:13:56.919Z,1.27
2023-05-10T15:16:24.765Z,1.40
2023-05-10T15:18:52.580Z,1.27
2023-05-10T15:21:21.462Z,1.50
2023-05-10T15:23:49.293Z,1.90
2023-05-10T15:26:17.237Z,7.70
2023-05-10T15:28:44.857Z,1.60
2023-05-10T15:31:12.557Z,1.70
2023-05-10T15:33:40.240Z,1.40
2023-05-10T15:36:08.046Z,1.40
2023-05-10T15:38:38.166Z,1.77
2023-05-10T15:41:05.893Z,1.15
2023-05-10T15:43:33.399Z,1.63
2023-05-10T15:46:01.630Z,1.20
2023-05-10T15:48:32.310Z,1.55
2023-05-10T15:50:59.984Z,1.50
2023-05-10T15:53:27.537Z,1.42
2023-05-10T15:55:56.415Z,2.08
2023-05-10T15:58:24.021Z,1.75
2023-05-10T16:00:51.885Z,1.45
2023-05-10T16:03:19.958Z,1.77
2023-05-10T16:05:47.604Z,1.60
2023-05-10T16:08:15.112Z,1.67
2023-05-10T16:10:45.446Z,1.77
2023-05-10T16:13:15.210Z,1.63
2023-05-10T16:15:43.119Z,1.50
2023-05-10T16:18:10.900Z,1.40
2023-05-10T16:20:38.511Z,1.95
2023-05-10T16:23:06.895Z,2.22
2023-05-10T16:25:34.570Z,1.60
2023-05-10T16:28:02.138Z,1.60
2023-05-10T16:30:30.969Z,1.63
2023-05-10T16:32:59.152Z,1.63
2023-05-10T16:35:26.697Z,2.00
2023-05-10T16:37:54.347Z,1.63
2023-05-10T16:40:22.206Z,1.85
2023-05-10T16:42:49.775Z,1.63
2023-05-10T16:45:17.521Z,1.30
2023-05-10T16:47:46.752Z,1.48
2023-05-10T16:50:15.040Z,1.80
2023-05-10T16:52:42.615Z,1.90
2023-05-10T16:55:10.418Z,1.77
2023-05-10T16:57:37.968Z,1.48
2023-05-10T17:00:06.224Z,1.58
2023-05-10T17:02:33.830Z,1.42
2023-05-10T17:05:02.883Z,1.50
2023-05-10T17:07:30.610Z,1.63
2023-05-10T17:09:59.158Z,1.67
2023-05-10T17:12:26.847Z,1.77
2023-05-10T17:14:54.373Z,1.67
2023-05-10T17:17:22.024Z,1.40
2023-05-10T17:19:49.613Z,1.58
2023-05-10T17:22:18.597Z,1.50
2023-05-10T17:24:46.134Z,1.83
2023-05-10T17:27:13.724Z,1.55
2023-05-10T17:29:41.225Z,1.75
2023-05-10T17:32:10.020Z,2.10
2023-05-10T17:34:37.659Z,1.67
2023-05-10T17:37:05.319Z,2.08
2023-05-10T17:39:35.037Z,2.03
2023-05-10T17:42:02.725Z,3.20
2023-05-10T17:44:30.317Z,2.30
2023-05-10T17:46:57.798Z,2.50
2023-05-10T17:49:25.571Z,1.85
2023-05-10T17:51:53.137Z,2.28
2023-05-10T17:54:20.626Z,1.77
2023-05-10T17:56:49.696Z,1.48
2023-05-10T17:59:17.180Z,1.40
2023-05-10T18:01:44.698Z,1.80
2023-05-10T18:04:13.287Z,1.85
2023-05-10T18:06:41.555Z,1.90
2023-05-10T18:09:09.605Z,1.73
2023-05-10T18:11:38.197Z,2.25
2023-05-10T18:14:07.034Z,2.00
2023-05-10T18:16:34.615Z,1.90
2023-05-10T18:19:02.548Z,1.83
2023-05-10T18:21:30.196Z,2.15
2023-05-10T18:23:57.707Z,2.10
2023-05-10T18:26:25.294Z,2.10
2023-05-10T18:28:52.981Z,2.10
2023-05-10T18:31:22.087Z,2.20
2023-05-10T18:33:49.917Z,2.28
2023-05-10T18:36:17.497Z,2.20
2023-05-10T18:38:45.879Z,1.88
2023-05-10T18:41:14.621Z,2.53
2023-05-10T18:43:42.990Z,2.33
2023-05-10T18:46:10.578Z,2.50
2023-05-10T18:48:39.676Z,2.10
2023-05-10T18:51:07.596Z,2.17
2023-05-10T18:53:35.092Z,2.50
2023-05-10T18:56:02.728Z,2.63
2023-05-10T18:58:30.616Z,3.50
2023-05-10T19:00:58.696Z,2.47
2023-05-10T19:03:26.248Z,2.13
2023-05-10T19:05:55.229Z,2.20
2023-05-10T19:08:22.957Z,2.75
2023-05-10T19:10:50.570Z,2.70
2023-05-10T19:13:18.327Z,2.60
2023-05-10T19:15:47.304Z,3.22
2023-05-10T19:18:16.445Z,2.70
2023-05-10T19:20:45.756Z,2.88
2023-05-10T19:23:15.989Z,2.10
2023-05-10T19:25:45.991Z,2.60
2023-05-10T19:28:13.663Z,2.67
2023-05-10T19:30:41.703Z,3.15
2023-05-10T19:33:13.044Z,3.30
2023-05-10T19:35:40.856Z,3.40
2023-05-10T19:38:08.433Z,3.42
2023-05-10T19:40:37.625Z,3.40
2023-05-10T19:43:05.129Z,3.47
2023-05-10T19:45:37.166Z,3.35
2023-05-10T19:48:05.235Z,4.50
2023-05-10T19:50:32.823Z,4.40
2023-05-10T19:53:01.264Z,4.20
2023-05-10T19:55:29.709Z,3.65
2023-05-10T19:58:00.490Z,5.03
2023-05-10T20:00:28.433Z,4.63
2023-05-10T20:02:56.231Z,5.55
2023-05-10T20:05:23.786Z,5.18
2023-05-10T20:07:54.573Z,4.85
2023-05-10T20:10:24.666Z,4.43
2023-05-10T20:12:53.867Z,4.82
2023-05-10T20:15:23.876Z,5.75
2023-05-10T20:17:52.850Z,5.88
2023-05-10T20:20:20.948Z,5.70
2023-05-10T20:22:49.018Z,5.15
2023-05-10T20:25:16.910Z,5.85
2023-05-10T20:27:44.587Z,6.35
2023-05-10T20:30:12.615Z,5.38
2023-05-10T20:32:41.676Z,6.93
2023-05-10T20:35:09.653Z,8.85
2023-05-10T20:37:37.936Z,7.80
2023-05-10T20:40:05.998Z,10.15
2023-05-10T20:42:33.728Z,7.15
2023-05-10T20:45:01.775Z,7.93
2023-05-10T20:47:29.360Z,9.07
2023-05-10T20:49:58.237Z,8.65
2023-05-10T20:52:26.082Z,9.00
2023-05-10T20:54:53.979Z,8.07
2023-05-10T20:57:21.463Z,8.35
2023-05-10T20:59:50.444Z,8.18
2023-05-10T21:02:18.269Z,8.10
2023-05-10T21:04:45.976Z,9.48
2023-05-10T21:07:15.070Z,8.13
2023-05-10T21:09:42.561Z,8.25
2023-05-10T21:12:10.884Z,10.95
2023-05-10T21:14:38.741Z,9.23
2023-05-10T21:17:06.189Z,8.57
2023-05-10T21:19:33.957Z,9.23
2023-05-10T21:22:02.004Z,9.07
2023-05-10T21:24:31.669Z,8.57
2023-05-10T21:26:59.175Z,8.27
2023-05-10T21:29:26.710Z,8.07
2023-05-10T21:31:54.627Z,8.07
2023-05-10T21:34:22.195Z,9.30
2023-05-10T21:36:49.752Z,8.18
2023-05-10T21:39:17.254Z,8.27
2023-05-10T21:41:46.090Z,8.20
2023-05-10T21:44:13.728Z,8.07
2023-05-10T21:46:41.193Z,8.48
2023-05-10T21:49:08.654Z,7.68
2023-05-10T21:51:36.504Z,7.50
2023-05-10T21:54:04.089Z,9.00
2023-05-10T21:56:31.846Z,8.73
2023-05-10T21:59:00.776Z,10.27
2023-05-10T22:01:28.326Z,10.05
2023-05-10T22:03:56.007Z,9.55
2023-05-10T22:06:23.611Z,8.05
2023-05-10T22:08:51.171Z,9.55
2023-05-10T22:11:21.774Z,7.88
2023-05-10T22:13:49.663Z,7.82
2023-05-10T22:16:18.657Z,8.60
2023-05-10T22:18:46.177Z,8.13
2023-05-10T22:21:13.989Z,9.20
2023-05-10T22:23:41.667Z,7.57
2023-05-10T22:26:09.493Z,8.95
2023-05-10T22:28:37.308Z,8.15
2023-05-10T22:31:05.032Z,8.77
2023-05-10T22:33:33.900Z,8.82
2023-05-10T22:36:01.440Z,8.98
2023-05-10T22:38:28.959Z,8.90
2023-05-10T22:40:56.562Z,8.90
2023-05-10T22:43:24.192Z,11.40
2023-05-10T22:45:52.432Z,8.45
2023-05-10T22:48:20.453Z,8.75
2023-05-10T22:50:49.546Z,8.95
2023-05-10T22:53:17.071Z,10.07
2023-05-10T22:55:45.191Z,8.90
2023-05-10T22:58:13.213Z,8.48
2023-05-10T23:00:41.023Z,8.65
2023-05-10T23:03:08.552Z,7.70
2023-05-10T23:05:36.488Z,8.70
2023-05-10T23:08:05.653Z,9.93
2023-05-10T23:10:33.241Z,9.57
2023-05-10T23:13:01.262Z,8.98
2023-05-10T23:15:29.783Z,10.52
2023-05-10T23:18:01.053Z,9.27
2023-05-10T23:20:28.787Z,7.78
2023-05-10T23:22:56.313Z,9.52
2023-05-10T23:25:26.627Z,9.38
2023-05-10T23:27:54.160Z,8.38
2023-05-10T23:30:21.751Z,8.93
2023-05-10T23:32:49.257Z,8.40
2023-05-10T23:35:16.967Z,7.78
2023-05-10T23:37:44.436Z,8.02
2023-05-10T23:40:13.510Z,8.35
2023-05-10T23:42:42.657Z,8.38
2023-05-10T23:45:10.534Z,7.93
2023-05-10T23:47:38.394Z,7.68
2023-05-10T23:50:06.450Z,7.00
2023-05-10T23:52:33.909Z,8.15
2023-05-10T23:55:01.352Z,7.78
2023-05-10T23:57:28.893Z,7.75
2023-05-10T23:59:57.970Z,7.32
